Time;durP1;ratioP1;P1;durP2;ratioP2;P2;SDS_P1;SDS_P2;PMS_P1;PMS_P2;Temp;Humidity;BMP_temperature;BMP_pressure;BME280_temperature;BME280_humidity;BME280_pressure;Samples;Min_cycle;Max_cycle;Signal;HPM_P1;HPM_P2
2024/03/12 00:00:53;;;;;;;3.97;1.60;;;;;;;;;;5030135;28;20040;-66
2024/03/12 00:03:19;;;;;;;1.63;1.50;;;;;;;;;;5013599;28;20048;-67
2024/03/12 00:05:44;;;;;;;5.20;1.75;;;;;;;;;;5031510;28;20057;-67
2024/03/12 00:08:10;;;;;;;2.17;1.40;;;;;;;;;;5031323;28;20503;-66
2024/03/12 00:10:36;;;;;;;2.33;1.70;;;;;;;;;;5031687;28;20029;-68
2024/03/12 00:13:02;;;;;;;2.03;1.52;;;;;;;;;;5031676;28;20029;-67
2024/03/12 00:15:28;;;;;;;2.45;1.70;;;;;;;;;;5012699;28;20521;-68
2024/03/12 00:17:54;;;;;;;2.08;1.88;;;;;;;;;;5031238;28;20411;-66
2024/03/12 00:20:29;;;;;;;2.10;1.52;;;;;;;;;;5030179;28;20095;-67
2024/03/12 00:22:55;;;;;;;2.95;2.15;;;;;;;;;;5030429;28;20045;-67
2024/03/12 00:25:21;;;;;;;4.22;2.42;;;;;;;;;;5031685;28;20034;-67
2024/03/12 00:27:47;;;;;;;2.33;1.70;;;;;;;;;;5031309;28;20470;-67
2024/03/12 00:30:14;;;;;;;2.88;1.95;;;;;;;;;;5031568;28;20124;-66
2024/03/12 00:32:43;;;;;;;3.10;1.90;;;;;;;;;;5030034;28;20123;-67
2024/03/12 00:35:10;;;;;;;2.40;1.90;;;;;;;;;;5013462;28;20061;-66
2024/03/12 00:37:39;;;;;;;2.88;1.80;;;;;;;;;;5031276;28;20250;-67
2024/03/12 00:40:05;;;;;;;3.15;1.40;;;;;;;;;;5031467;28;20136;-67
2024/03/12 00:42:32;;;;;;;2.17;1.92;;;;;;;;;;5031263;28;20033;-66
2024/03/12 00:44:58;;;;;;;2.65;1.50;;;;;;;;;;5031567;28;20502;-66
2024/03/12 00:47:25;;;;;;;3.95;1.95;;;;;;;;;;5031161;28;20049;-67
2024/03/12 00:49:50;;;;;;;3.05;1.83;;;;;;;;;;5031466;28;20029;-67
2024/03/12 00:52:22;;;;;;;4.85;2.10;;;;;;;;;;5030972;28;20030;-66
2024/03/12 00:54:50;;;;;;;3.88;2.05;;;;;;;;;;5031286;28;20041;-67
2024/03/12 00:57:16;;;;;;;2.90;1.77;;;;;;;;;;5031212;28;20079;-67
2024/03/12 00:59:42;;;;;;;1.77;1.60;;;;;;;;;;5031239;28;20091;-67
2024/03/12 01:02:10;;;;;;;4.20;2.53;;;;;;;;;;5032951;28;20065;-67
2024/03/12 01:04:38;;;;;;;4.35;2.10;;;;;;;;;;5035058;28;20087;-66
2024/03/12 01:07:07;;;;;;;7.60;4.28;;;;;;;;;;5034962;28;20087;-68
2024/03/12 01:09:39;;;;;;;8.65;5.38;;;;;;;;;;5034819;28;20483;-66
2024/03/12 01:12:05;;;;;;;11.43;6.35;;;;;;;;;;5034732;28;20033;-67
2024/03/12 01:14:31;;;;;;;12.05;6.78;;;;;;;;;;5033036;28;20033;-67
2024/03/12 01:16:56;;;;;;;6.82;3.38;;;;;;;;;;5033407;28;20070;-66
2024/03/12 01:19:25;;;;;;;4.53;2.80;;;;;;;;;;5033233;28;20057;-67
2024/03/12 01:21:51;;;;;;;6.38;4.70;;;;;;;;;;5034814;28;20128;-67
2024/03/12 01:24:16;;;;;;;6.28;4.32;;;;;;;;;;5033278;28;20042;-66
2024/03/12 01:26:42;;;;;;;4.80;2.47;;;;;;;;;;5033788;28;20030;-65
2024/03/12 01:29:08;;;;;;;8.90;5.00;;;;;;;;;;5034437;28;20076;-66
2024/03/12 01:31:33;;;;;;;11.73;5.82;;;;;;;;;;5034232;28;20040;-67
2024/03/12 01:33:59;;;;;;;3.45;2.40;;;;;;;;;;5034533;28;20041;-66
2024/03/12 01:36:34;;;;;;;1.75;1.58;;;;;;;;;;5033884;28;20071;-65
2024/03/12 01:39:04;;;;;;;2.80;1.70;;;;;;;;;;5032897;28;20091;-66
2024/03/12 01:41:34;;;;;;;3.83;1.95;;;;;;;;;;5016412;28;20522;-65
2024/03/12 01:44:02;;;;;;;4.77;2.70;;;;;;;;;;5032757;28;20136;-66
2024/03/12 01:46:35;;;;;;;3.70;1.92;;;;;;;;;;5032757;28;20276;-67
2024/03/12 01:49:04;;;;;;;3.50;1.88;;;;;;;;;;5034208;28;20087;-67
2024/03/12 01:51:31;;;;;;;3.70;2.10;;;;;;;;;;5031567;28;20410;-67
2024/03/12 01:53:56;;;;;;;1.65;1.55;;;;;;;;;;5032465;28;20048;-67
2024/03/12 01:56:24;;;;;;;3.80;2.00;;;;;;;;;;5032569;28;20034;-68
2024/03/12 01:58:53;;;;;;;3.65;1.80;;;;;;;;;;5016005;28;20076;-67
2024/03/12 02:01:20;;;;;;;3.03;1.50;;;;;;;;;;5033988;28;20030;-67
2024/03/12 02:03:47;;;;;;;5.05;1.85;;;;;;;;;;5033783;28;20042;-67
2024/03/12 02:06:13;;;;;;;2.33;1.67;;;;;;;;;;5032668;28;20037;-68
2024/03/12 02:08:39;;;;;;;2.20;1.88;;;;;;;;;;5032468;28;20091;-65
2024/03/12 02:11:04;;;;;;;3.97;2.15;;;;;;;;;;5032629;28;20083;-70
2024/03/12 02:13:30;;;;;;;2.05;1.85;;;;;;;;;;5033585;28;20167;-67
2024/03/12 02:15:57;;;;;;;4.13;1.92;;;;;;;;;;5032908;28;20037;-66
2024/03/12 02:18:23;;;;;;;2.15;1.63;;;;;;;;;;5033265;28;20045;-68
2024/03/12 02:20:49;;;;;;;3.63;1.90;;;;;;;;;;5032364;28;20044;-67
2024/03/12 02:23:15;;;;;;;3.38;1.80;;;;;;;;;;5033211;28;20499;-67
2024/03/12 02:25:42;;;;;;;3.72;2.10;;;;;;;;;;5032824;28;20113;-68
2024/03/12 02:28:08;;;;;;;3.38;1.90;;;;;;;;;;5033393;28;20045;-66
2024/03/12 02:30:34;;;;;;;2.35;1.90;;;;;;;;;;5033096;28;20095;-67
2024/03/12 02:33:02;;;;;;;4.05;2.22;;;;;;;;;;5033310;28;20064;-66
2024/03/12 02:35:28;;;;;;;3.40;1.85;;;;;;;;;;5030975;28;20057;-66
2024/03/12 02:37:54;;;;;;;3.22;2.00;;;;;;;;;;5032234;28;20637;-66
2024/03/12 02:40:20;;;;;;;2.72;1.55;;;;;;;;;;5031964;28;20582;-67
2024/03/12 02:42:46;;;;;;;2.25;2.05;;;;;;;;;;5033176;28;20040;-67
2024/03/12 02:45:15;;;;;;;2.70;2.20;;;;;;;;;;5033414;28;20399;-66
2024/03/12 02:47:44;;;;;;;3.85;2.15;;;;;;;;;;5032817;28;20152;-66
2024/03/12 02:50:10;;;;;;;2.15;1.65;;;;;;;;;;5032770;28;20041;-67
2024/03/12 02:52:35;;;;;;;3.17;2.00;;;;;;;;;;5032897;28;20514;-67
2024/03/12 02:55:01;;;;;;;3.80;1.85;;;;;;;;;;5031403;28;20495;-66
2024/03/12 02:57:27;;;;;;;3.80;2.00;;;;;;;;;;5031362;28;20563;-67
2024/03/12 02:59:52;;;;;;;3.22;1.80;;;;;;;;;;5032848;28;20053;-67
2024/03/12 03:02:19;;;;;;;3.75;2.00;;;;;;;;;;5014733;28;20045;-67
2024/03/12 03:04:45;;;;;;;4.88;2.00;;;;;;;;;;5032774;28;20041;-68
2024/03/12 03:07:11;;;;;;;2.60;1.63;;;;;;;;;;5032728;28;20033;-69
2024/03/12 03:09:36;;;;;;;2.35;2.00;;;;;;;;;;5031280;28;20051;-66
2024/03/12 03:12:02;;;;;;;2.88;1.83;;;;;;;;;;5014737;28;20033;-68
2024/03/12 03:14:28;;;;;;;2.85;1.98;;;;;;;;;;5032606;28;20087;-66
2024/03/12 03:16:56;;;;;;;2.40;1.98;;;;;;;;;;5032503;28;20036;-68
2024/03/12 03:19:22;;;;;;;2.75;1.98;;;;;;;;;;5030715;28;20053;-67
2024/03/12 03:21:48;;;;;;;3.72;2.30;;;;;;;;;;5032287;28;20034;-68
2024/03/12 03:24:14;;;;;;;4.25;1.83;;;;;;;;;;5030336;28;20045;-67
2024/03/12 03:26:40;;;;;;;5.05;2.13;;;;;;;;;;5032260;28;20065;-68
2024/03/12 03:29:05;;;;;;;3.55;2.60;;;;;;;;;;5030707;28;20041;-66
2024/03/12 03:31:31;;;;;;;4.40;2.70;;;;;;;;;;5031120;28;20088;-68
2024/03/12 03:34:04;;;;;;;2.95;2.20;;;;;;;;;;5032098;28;20457;-67
2024/03/12 03:36:31;;;;;;;4.80;2.20;;;;;;;;;;5031988;28;20061;-66
2024/03/12 03:38:57;;;;;;;4.65;2.25;;;;;;;;;;5030920;28;20056;-67
2024/03/12 03:41:23;;;;;;;3.47;2.50;;;;;;;;;;5032047;28;20045;-67
2024/03/12 03:43:49;;;;;;;3.65;2.15;;;;;;;;;;5031767;28;20037;-67
2024/03/12 03:46:14;;;;;;;3.70;2.13;;;;;;;;;;5030599;28;20440;-71
2024/03/12 03:48:40;;;;;;;4.22;1.95;;;;;;;;;;5030354;28;20098;-68
2024/03/12 03:51:05;;;;;;;3.97;2.15;;;;;;;;;;5032011;28;20048;-67
2024/03/12 03:53:31;;;;;;;4.50;2.65;;;;;;;;;;5031548;28;20042;-67
2024/03/12 03:55:56;;;;;;;2.90;2.55;;;;;;;;;;5031860;28;20033;-67
2024/03/12 03:58:25;;;;;;;6.45;2.30;;;;;;;;;;5030275;28;20080;-67
2024/03/12 04:00:51;;;;;;;4.70;2.22;;;;;;;;;;5013947;28;20103;-67
2024/03/12 04:03:17;;;;;;;3.22;2.40;;;;;;;;;;5031514;28;20436;-67
2024/03/12 04:05:43;;;;;;;4.05;2.22;;;;;;;;;;5029845;28;20044;-68
2024/03/12 04:08:08;;;;;;;5.13;2.70;;;;;;;;;;5031591;28;20049;-68
2024/03/12 04:10:34;;;;;;;3.50;2.53;;;;;;;;;;5031389;28;20029;-68
2024/03/12 04:13:00;;;;;;;3.53;2.30;;;;;;;;;;5031341;28;20044;-67
2024/03/12 04:15:28;;;;;;;2.95;2.20;;;;;;;;;;5029967;28;20041;-68
2024/03/12 04:17:55;;;;;;;4.25;2.30;;;;;;;;;;5031305;28;20033;-66
2024/03/12 04:20:21;;;;;;;5.50;2.60;;;;;;;;;;5013763;28;20053;-67
2024/03/12 04:22:47;;;;;;;6.95;3.13;;;;;;;;;;5013512;28;20531;-64
2024/03/12 04:25:15;;;;;;;2.70;2.08;;;;;;;;;;5031492;28;20064;-65
2024/03/12 04:27:41;;;;;;;4.93;2.50;;;;;;;;;;5029938;28;20494;-65
2024/03/12 04:30:10;;;;;;;4.28;2.60;;;;;;;;;;5030722;28;20034;-65
2024/03/12 04:32:37;;;;;;;;;;;;;;;;;;5031759;28;20044;-65
2024/03/12 04:35:05;;;;;;;4.07;2.45;;;;;;;;;;5030275;28;19917;-65
2024/03/12 04:37:32;;;;;;;4.80;2.70;;;;;;;;;;5033127;28;20037;-66
2024/03/12 04:39:59;;;;;;;5.90;2.50;;;;;;;;;;5034678;28;20128;-66
2024/03/12 04:42:27;;;;;;;5.00;2.70;;;;;;;;;;5034284;28;20037;-67
2024/03/12 04:44:53;;;;;;;8.02;3.30;;;;;;;;;;5035350;28;20048;-66
2024/03/12 04:47:20;;;;;;;8.38;3.60;;;;;;;;;;5034617;28;20057;-66
2024/03/12 04:49:47;;;;;;;12.63;4.35;;;;;;;;;;5033637;28;20103;-64
2024/03/12 04:52:13;;;;;;;6.60;3.05;;;;;;;;;;5016612;28;20029;-67
2024/03/12 04:54:38;;;;;;;7.55;3.42;;;;;;;;;;5035089;28;20384;-64
2024/03/12 04:57:07;;;;;;;9.32;4.00;;;;;;;;;;5035364;28;20045;-62
2024/03/12 04:59:34;;;;;;;10.50;3.60;;;;;;;;;;5032974;28;20072;-65
2024/03/12 05:02:00;;;;;;;8.20;3.60;;;;;;;;;;5033323;28;20487;-66
2024/03/12 05:04:25;;;;;;;9.93;4.00;;;;;;;;;;5033605;28;20063;-65
2024/03/12 05:06:51;;;;;;;7.97;3.53;;;;;;;;;;5035622;28;20029;-67
2024/03/12 05:09:19;;;;;;;6.97;3.05;;;;;;;;;;5032915;28;20103;-69
2024/03/12 05:11:45;;;;;;;7.72;3.70;;;;;;;;;;5035147;28;20044;-67
2024/03/12 05:14:11;;;;;;;8.13;3.92;;;;;;;;;;5034683;28;20041;-63
2024/03/12 05:16:37;;;;;;;19.95;4.45;;;;;;;;;;5016754;28;20029;-63
2024/03/12 05:19:02;;;;;;;5.13;3.33;;;;;;;;;;5034704;28;20099;-62
2024/03/12 05:21:28;;;;;;;7.38;3.08;;;;;;;;;;5016728;28;20025;-62
2024/03/12 05:23:54;;;;;;;4.32;2.88;;;;;;;;;;5034639;28;20073;-66
2024/03/12 05:26:25;;;;;;;6.55;3.10;;;;;;;;;;5033223;28;20045;-66
2024/03/12 05:28:52;;;;;;;4.20;2.72;;;;;;;;;;5015853;28;20037;-67
2024/03/12 05:31:29;;;;;;;4.43;2.40;;;;;;;;;;5032319;28;20095;-63
2024/03/12 05:34:00;;;;;;;6.45;2.80;;;;;;;;;;5012695;28;20111;-63
2024/03/12 05:36:29;;;;;;;5.32;2.88;;;;;;;;;;5031306;28;20054;-65
2024/03/12 05:39:03;;;;;;;6.25;2.80;;;;;;;;;;5030211;28;20048;-63
2024/03/12 05:41:40;;;;;;;8.48;2.88;;;;;;;;;;5030528;28;20043;-64
2024/03/12 05:49:36;;;;;;;8.10;2.78;;;;;;;;;;5032846;28;20045;-65
2024/03/12 05:52:04;;;;;;;4.32;2.67;;;;;;;;;;4999039;28;20033;-67
2024/03/12 05:54:30;;;;;;;4.55;2.60;;;;;;;;;;5031821;28;20061;-67
2024/03/12 05:56:56;;;;;;;4.43;2.67;;;;;;;;;;5030850;28;20124;-65
2024/03/12 05:59:22;;;;;;;4.45;2.22;;;;;;;;;;5014271;28;20045;-66
2024/03/12 06:01:51;;;;;;;4.40;2.28;;;;;;;;;;5030727;28;20033;-68
2024/03/12 06:04:16;;;;;;;4.47;2.45;;;;;;;;;;5031061;28;20041;-66
2024/03/12 06:06:42;;;;;;;5.18;2.28;;;;;;;;;;5031286;28;20029;-66
2024/03/12 06:09:09;;;;;;;3.08;2.20;;;;;;;;;;5033211;28;20044;-68
2024/03/12 06:11:36;;;;;;;3.47;2.25;;;;;;;;;;5031797;28;20037;-65
2024/03/12 06:14:02;;;;;;;2.97;2.13;;;;;;;;;;5029471;28;20033;-65
2024/03/12 06:16:27;;;;;;;2.50;2.20;;;;;;;;;;5030984;28;20037;-64
2024/03/12 06:18:54;;;;;;;2.97;2.03;;;;;;;;;;4998251;28;20052;-63
2024/03/12 06:21:19;;;;;;;4.80;2.50;;;;;;;;;;5032580;28;20030;-67
2024/03/12 06:23:45;;;;;;;8.93;2.78;;;;;;;;;;5032874;28;20061;-65
2024/03/12 06:26:11;;;;;;;2.85;2.13;;;;;;;;;;5031505;28;20029;-68
2024/03/12 06:28:36;;;;;;;4.45;2.40;;;;;;;;;;5031466;28;20048;-64
2024/03/12 06:31:03;;;;;;;6.40;2.10;;;;;;;;;;5014547;28;20033;-66
2024/03/12 06:33:29;;;;;;;4.82;2.40;;;;;;;;;;5032352;28;20037;-67
2024/03/12 06:35:55;;;;;;;5.32;2.50;;;;;;;;;;5032075;28;20400;-66
2024/03/12 06:38:20;;;;;;;5.22;2.47;;;;;;;;;;5031217;28;20045;-66
2024/03/12 06:40:48;;;;;;;4.32;2.53;;;;;;;;;;5030773;28;20025;-66
2024/03/12 06:43:17;;;;;;;2.97;2.25;;;;;;;;;;5031790;28;20037;-65
2024/03/12 06:45:43;;;;;;;5.28;3.00;;;;;;;;;;5032379;28;20037;-64
2024/03/12 06:48:09;;;;;;;6.47;3.28;;;;;;;;;;5031666;28;20087;-65
2024/03/12 06:50:34;;;;;;;9.35;2.83;;;;;;;;;;5030867;28;20457;-66
2024/03/12 06:53:00;;;;;;;4.68;3.05;;;;;;;;;;5030396;28;20479;-66
2024/03/12 06:55:26;;;;;;;4.72;2.83;;;;;;;;;;5031714;28;20384;-66
2024/03/12 06:57:59;;;;;;;7.65;3.80;;;;;;;;;;5032175;28;20045;-65
2024/03/12 07:00:40;;;;;;;4.70;2.95;;;;;;;;;;5031509;28;20088;-69
2024/03/12 07:03:06;;;;;;;7.00;3.20;;;;;;;;;;5031846;28;20368;-65
2024/03/12 07:05:43;;;;;;;4.93;2.70;;;;;;;;;;5030720;28;20049;-67
2024/03/12 07:08:10;;;;;;;9.18;2.83;;;;;;;;;;5031532;28;20030;-65
2024/03/12 07:10:40;;;;;;;8.23;2.88;;;;;;;;;;5031913;28;20069;-66
2024/03/12 07:13:09;;;;;;;5.88;3.05;;;;;;;;;;5030523;28;20035;-65
2024/03/12 07:15:38;;;;;;;3.97;2.22;;;;;;;;;;5031905;28;20079;-66
2024/03/12 07:18:05;;;;;;;7.22;2.63;;;;;;;;;;5031840;28;20032;-65
2024/03/12 07:20:31;;;;;;;4.75;2.95;;;;;;;;;;5032084;28;20056;-66
2024/03/12 07:22:59;;;;;;;3.90;2.85;;;;;;;;;;5030646;28;20044;-64
2024/03/12 07:25:30;;;;;;;4.10;2.60;;;;;;;;;;5029455;28;20037;-64
2024/03/12 07:27:58;;;;;;;3.92;2.70;;;;;;;;;;5031762;28;20041;-63
2024/03/12 07:30:25;;;;;;;7.10;2.67;;;;;;;;;;5014014;28;20033;-66
2024/03/12 07:32:53;;;;;;;4.32;2.60;;;;;;;;;;5030480;28;20087;-64
2024/03/12 07:35:19;;;;;;;7.50;2.72;;;;;;;;;;5033385;28;20056;-67
2024/03/12 07:37:46;;;;;;;10.52;2.92;;;;;;;;;;5030251;28;20080;-66
2024/03/12 07:40:12;;;;;;;5.45;2.20;;;;;;;;;;5031934;28;20041;-64
2024/03/12 07:42:41;;;;;;;3.88;2.47;;;;;;;;;;5030159;28;20048;-64
2024/03/12 07:45:10;;;;;;;4.85;2.13;;;;;;;;;;4997358;28;20136;-63
2024/03/12 07:47:41;;;;;;;6.32;2.83;;;;;;;;;;5031049;28;20038;-65
2024/03/12 07:50:08;;;;;;;2.83;2.10;;;;;;;;;;5031663;28;20030;-66
2024/03/12 07:52:34;;;;;;;3.15;2.47;;;;;;;;;;5031154;28;20124;-65
2024/03/12 07:55:02;;;;;;;4.40;2.50;;;;;;;;;;5029931;28;20094;-65
2024/03/12 07:57:28;;;;;;;4.63;2.75;;;;;;;;;;5029012;28;20033;-66
2024/03/12 07:59:54;;;;;;;7.72;4.13;;;;;;;;;;5029679;28;20045;-65
2024/03/12 08:02:21;;;;;;;8.13;4.25;;;;;;;;;;5030274;28;20033;-66
2024/03/12 08:04:47;;;;;;;5.28;3.10;;;;;;;;;;5027762;28;20060;-66
2024/03/12 08:07:13;;;;;;;6.15;2.75;;;;;;;;;;5012319;28;20563;-65
2024/03/12 08:09:39;;;;;;;5.40;3.72;;;;;;;;;;5030406;28;20442;-66
2024/03/12 08:12:07;;;;;;;3.25;2.45;;;;;;;;;;5028877;28;20030;-65
2024/03/12 08:14:34;;;;;;;3.08;2.33;;;;;;;;;;5029180;28;20052;-67
2024/03/12 08:17:00;;;;;;;5.18;2.85;;;;;;;;;;5028980;28;20116;-65
2024/03/12 08:19:25;;;;;;;4.63;2.70;;;;;;;;;;5031254;28;20562;-66
2024/03/12 08:21:51;;;;;;;5.78;2.80;;;;;;;;;;5030132;28;20485;-69
2024/03/12 08:24:17;;;;;;;5.57;2.70;;;;;;;;;;5031469;28;20065;-68
2024/03/12 08:26:43;;;;;;;6.28;2.75;;;;;;;;;;5029022;28;20060;-69
2024/03/12 08:29:09;;;;;;;2.58;2.00;;;;;;;;;;5028074;28;20048;-68
2024/03/12 08:31:38;;;;;;;7.72;2.80;;;;;;;;;;5030692;28;20083;-69
2024/03/12 08:34:09;;;;;;;5.93;2.58;;;;;;;;;;5030089;28;20037;-70
2024/03/12 08:36:35;;;;;;;3.95;2.28;;;;;;;;;;5013172;28;20050;-68
2024/03/12 08:39:01;;;;;;;3.72;2.80;;;;;;;;;;5029866;28;20106;-68
2024/03/12 08:41:27;;;;;;;4.20;2.95;;;;;;;;;;5029788;28;20033;-63
2024/03/12 08:43:53;;;;;;;4.53;2.67;;;;;;;;;;5028730;28;20060;-64
2024/03/12 08:46:19;;;;;;;3.92;2.13;;;;;;;;;;5009353;28;20496;-63
2024/03/12 08:48:48;;;;;;;3.95;2.33;;;;;;;;;;5008933;28;20132;-63
2024/03/12 08:51:14;;;;;;;1.80;1.52;;;;;;;;;;5011326;28;20065;-64
2024/03/12 08:53:40;;;;;;;1.98;1.70;;;;;;;;;;5027460;28;20436;-64
2024/03/12 08:56:06;;;;;;;2.85;1.73;;;;;;;;;;5011919;28;20033;-64
2024/03/12 08:58:33;;;;;;;4.55;2.08;;;;;;;;;;5011972;28;20384;-63
2024/03/12 09:01:00;;;;;;;3.33;2.20;;;;;;;;;;5015753;28;20030;-64
2024/03/12 09:03:26;;;;;;;1.33;1.23;;;;;;;;;;5025644;28;20049;-65
2024/03/12 09:05:51;;;;;;;1.52;1.15;;;;;;;;;;5013193;28;20030;-64
2024/03/12 09:08:17;;;;;;;2.17;1.30;;;;;;;;;;5030156;28;20533;-62
2024/03/12 09:10:47;;;;;;;2.25;1.20;;;;;;;;;;5030256;28;20037;-63
2024/03/12 09:13:16;;;;;;;2.03;1.40;;;;;;;;;;5030332;28;20495;-62
2024/03/12 09:15:44;;;;;;;1.45;1.30;;;;;;;;;;5030123;28;20041;-64
2024/03/12 09:18:10;;;;;;;1.42;1.20;;;;;;;;;;5030283;28;20037;-62
2024/03/12 09:20:36;;;;;;;1.42;1.17;;;;;;;;;;5029642;28;20507;-63
2024/03/12 09:23:02;;;;;;;1.60;1.50;;;;;;;;;;5031825;28;20472;-62
2024/03/12 09:25:29;;;;;;;1.70;1.60;;;;;;;;;;5033934;28;20083;-64
2024/03/12 09:27:55;;;;;;;2.03;1.90;;;;;;;;;;5033777;28;20033;-64
2024/03/12 09:30:23;;;;;;;3.08;2.30;;;;;;;;;;5032480;28;20044;-64
2024/03/12 09:32:51;;;;;;;2.58;2.20;;;;;;;;;;5032201;28;20124;-64
2024/03/12 09:35:18;;;;;;;4.90;1.88;;;;;;;;;;5032448;28;20045;-63
2024/03/12 09:37:45;;;;;;;3.00;2.00;;;;;;;;;;5033852;28;20141;-63
2024/03/12 09:40:13;;;;;;;2.00;1.50;;;;;;;;;;5033663;28;20488;-63
2024/03/12 09:42:42;;;;;;;1.33;1.23;;;;;;;;;;5033848;28;20050;-63
2024/03/12 09:45:08;;;;;;;1.95;1.30;;;;;;;;;;5015491;28;20041;-62
2024/03/12 09:47:35;;;;;;;2.55;1.30;;;;;;;;;;5033266;28;20071;-63
2024/03/12 09:50:03;;;;;;;1.90;1.23;;;;;;;;;;5032479;28;20025;-64
2024/03/12 09:52:30;;;;;;;1.17;1.17;;;;;;;;;;5031910;28;20066;-62
2024/03/12 09:54:59;;;;;;;1.15;1.10;;;;;;;;;;5018796;28;20040;-62
2024/03/12 09:57:29;;;;;;;1.02;1.02;;;;;;;;;;4996736;28;20037;-64
2024/03/12 09:59:55;;;;;;;2.50;2.30;;;;;;;;;;5033532;28;20065;-62
2024/03/12 10:02:21;;;;;;;2.05;1.48;;;;;;;;;;5032817;28;20044;-63
2024/03/12 10:04:48;;;;;;;2.08;1.73;;;;;;;;;;5031561;28;20041;-63
2024/03/12 10:07:16;;;;;;;1.10;1.00;;;;;;;;;;5033219;28;20123;-62
2024/03/12 10:09:42;;;;;;;1.00;1.00;;;;;;;;;;5033718;28;20037;-63
2024/03/12 10:12:13;;;;;;;1.10;1.08;;;;;;;;;;5033647;28;20372;-63
2024/03/12 10:14:45;;;;;;;1.40;1.02;;;;;;;;;;4995559;28;20092;-64
2024/03/12 10:17:15;;;;;;;1.85;1.52;;;;;;;;;;5010936;28;20394;-64
2024/03/12 10:19:50;;;;;;;1.65;1.30;;;;;;;;;;5031704;28;20053;-64
2024/03/12 10:22:17;;;;;;;1.25;1.15;;;;;;;;;;5033380;28;20060;-63
2024/03/12 10:24:43;;;;;;;1.30;1.20;;;;;;;;;;5031809;28;20029;-63
2024/03/12 10:27:09;;;;;;;1.33;1.27;;;;;;;;;;5032997;28;20029;-63
2024/03/12 10:29:35;;;;;;;1.52;1.00;;;;;;;;;;5033062;28;20124;-63
2024/03/12 10:32:21;;;;;;;1.00;0.95;;;;;;;;;;5031637;28;20487;-66
2024/03/12 10:34:47;;;;;;;0.90;0.90;;;;;;;;;;5030304;28;20029;-63
2024/03/12 10:37:29;;;;;;;1.45;1.00;;;;;;;;;;5029286;28;20527;-63
2024/03/12 10:39:54;;;;;;;1.20;1.10;;;;;;;;;;5029584;28;20052;-62
2024/03/12 10:42:25;;;;;;;2.58;1.20;;;;;;;;;;5032053;28;20037;-64
2024/03/12 10:44:51;;;;;;;1.70;1.00;;;;;;;;;;5033086;28;20033;-62
2024/03/12 10:47:17;;;;;;;3.03;1.60;;;;;;;;;;5032242;28;20025;-62
2024/03/12 10:49:48;;;;;;;2.60;1.50;;;;;;;;;;5031625;28;20045;-63
2024/03/12 10:52:17;;;;;;;1.58;1.20;;;;;;;;;;5030229;28;20368;-62
2024/03/12 10:54:45;;;;;;;2.40;1.42;;;;;;;;;;5032868;28;20069;-65
2024/03/12 10:57:13;;;;;;;1.50;1.40;;;;;;;;;;5029586;28;20073;-66
2024/03/12 10:59:39;;;;;;;6.00;1.65;;;;;;;;;;5030168;28;20057;-64
2024/03/12 11:02:06;;;;;;;1.67;1.58;;;;;;;;;;5029963;28;20075;-62
2024/03/12 11:04:35;;;;;;;2.55;1.60;;;;;;;;;;5032508;28;20044;-65
2024/03/12 11:07:01;;;;;;;2.20;1.70;;;;;;;;;;5032180;28;20039;-63
2024/03/12 11:09:28;;;;;;;3.17;2.10;;;;;;;;;;5032566;28;20041;-61
2024/03/12 11:11:54;;;;;;;1.92;1.70;;;;;;;;;;5032289;28;20041;-64
2024/03/12 11:14:20;;;;;;;6.38;1.90;;;;;;;;;;5031448;28;20071;-63
2024/03/12 11:16:46;;;;;;;3.67;1.65;;;;;;;;;;5028978;28;20172;-63
2024/03/12 11:19:24;;;;;;;2.10;1.90;;;;;;;;;;5030446;28;20045;-64
2024/03/12 11:21:51;;;;;;;2.10;1.90;;;;;;;;;;5031859;28;20037;-63
2024/03/12 11:24:30;;;;;;;2.10;1.90;;;;;;;;;;5030673;28;20038;-62
2024/03/12 11:27:03;;;;;;;2.72;1.50;;;;;;;;;;5031581;28;20029;-63
2024/03/12 11:30:40;;;;;;;5.28;1.98;;;;;;;;;;5031481;28;20045;-62
2024/03/12 11:32:59;;;;;;;3.78;1.88;;;;;;;;;;4974167;28;20046;-63
2024/03/12 11:35:25;;;;;;;2.38;1.38;;;;;;;;;;4989989;28;20452;-63
2024/03/12 11:38:00;;;;;;;17.88;3.50;;;;;;;;;;4971930;28;20092;-64
2024/03/12 11:40:46;;;;;;;3.95;2.55;;;;;;;;;;4975396;28;20427;-61
2024/03/12 11:43:32;;;;;;;2.35;1.48;;;;;;;;;;5009466;28;20038;-64
2024/03/12 11:45:57;;;;;;;2.10;1.58;;;;;;;;;;5006650;28;20034;-62
2024/03/12 11:48:32;;;;;;;3.13;1.67;;;;;;;;;;4990296;28;20087;-64
2024/03/12 11:50:59;;;;;;;4.85;1.70;;;;;;;;;;5005171;28;20030;-63
2024/03/12 11:53:29;;;;;;;3.47;1.90;;;;;;;;;;4972465;28;20045;-63
2024/03/12 11:55:58;;;;;;;3.40;1.63;;;;;;;;;;5007607;28;20072;-68
2024/03/12 11:58:27;;;;;;;2.88;1.90;;;;;;;;;;4999395;28;20042;-67
2024/03/12 12:00:53;;;;;;;2.60;1.60;;;;;;;;;;5031133;28;20084;-69
2024/03/12 12:03:19;;;;;;;3.80;2.22;;;;;;;;;;4997692;28;20030;-68
2024/03/12 12:05:45;;;;;;;2.05;1.60;;;;;;;;;;5008724;28;20061;-70
2024/03/12 12:08:14;;;;;;;1.80;1.70;;;;;;;;;;5026414;28;20477;-71
2024/03/12 12:10:42;;;;;;;5.80;1.70;;;;;;;;;;5005982;28;20125;-68
2024/03/12 12:13:14;;;;;;;2.08;1.80;;;;;;;;;;4991150;28;20034;-67
2024/03/12 12:15:41;;;;;;;2.40;1.60;;;;;;;;;;5000028;28;20064;-67
2024/03/12 12:18:09;;;;;;;1.70;1.60;;;;;;;;;;4991577;28;20034;-66
2024/03/12 12:20:35;;;;;;;2.72;1.77;;;;;;;;;;4999813;28;20050;-68
2024/03/12 12:23:01;;;;;;;1.75;1.60;;;;;;;;;;5007523;28;20034;-67
2024/03/12 12:25:28;;;;;;;3.30;1.75;;;;;;;;;;5007309;28;20138;-66
2024/03/12 12:27:54;;;;;;;2.03;1.65;;;;;;;;;;4994605;28;20042;-64
2024/03/12 12:30:23;;;;;;;3.30;1.85;;;;;;;;;;4993766;28;20038;-66
2024/03/12 12:32:50;;;;;;;3.00;1.92;;;;;;;;;;4995402;28;20030;-65
2024/03/12 12:35:19;;;;;;;3.80;2.17;;;;;;;;;;5024391;28;20100;-65
2024/03/12 12:37:46;;;;;;;1.85;1.60;;;;;;;;;;5058937;28;20097;-65
2024/03/12 12:40:17;;;;;;;2.45;1.52;;;;;;;;;;5027537;28;20049;-63
2024/03/12 12:42:45;;;;;;;2.33;1.60;;;;;;;;;;5028174;28;20040;-64
2024/03/12 12:45:13;;;;;;;4.63;1.90;;;;;;;;;;5028147;28;20076;-65
2024/03/12 12:47:39;;;;;;;1.85;1.33;;;;;;;;;;5012977;28;20132;-64
2024/03/12 12:50:05;;;;;;;2.25;1.63;;;;;;;;;;5029753;28;20124;-64
2024/03/12 12:52:31;;;;;;;2.55;1.60;;;;;;;;;;5028888;28;20048;-65
2024/03/12 12:54:57;;;;;;;2.50;1.45;;;;;;;;;;5029583;28;20025;-64
2024/03/12 12:57:27;;;;;;;5.03;2.65;;;;;;;;;;5029915;28;20045;-65
2024/03/12 12:59:55;;;;;;;4.35;2.58;;;;;;;;;;5017382;28;20050;-63
2024/03/12 13:02:22;;;;;;;4.82;2.20;;;;;;;;;;5033107;28;20395;-64
2024/03/12 13:04:56;;;;;;;2.25;1.65;;;;;;;;;;5033467;28;20079;-65
2024/03/12 13:07:34;;;;;;;3.03;1.50;;;;;;;;;;5034328;28;20038;-66
2024/03/12 13:10:14;;;;;;;5.88;2.90;;;;;;;;;;5034889;28;20041;-65
2024/03/12 13:12:40;;;;;;;4.38;1.67;;;;;;;;;;5032776;28;20057;-65
2024/03/12 13:15:06;;;;;;;3.38;1.85;;;;;;;;;;5033253;28;20132;-67
2024/03/12 13:17:34;;;;;;;2.38;1.90;;;;;;;;;;5032719;28;20307;-67
2024/03/12 13:19:59;;;;;;;3.30;1.70;;;;;;;;;;5016255;28;20566;-69
2024/03/12 13:22:25;;;;;;;3.00;2.10;;;;;;;;;;5015863;28;20037;-68
2024/03/12 13:24:51;;;;;;;5.50;2.42;;;;;;;;;;5034216;28;20042;-68
2024/03/12 13:27:16;;;;;;;4.38;2.10;;;;;;;;;;5033932;28;20083;-70
2024/03/12 13:29:43;;;;;;;2.00;1.80;;;;;;;;;;5032901;28;20048;-69
2024/03/12 13:32:10;;;;;;;2.97;1.80;;;;;;;;;;5033681;28;20072;-67
2024/03/12 13:34:35;;;;;;;6.22;2.00;;;;;;;;;;5034013;28;20051;-69
2024/03/12 13:37:01;;;;;;;3.83;2.83;;;;;;;;;;5033295;28;20053;-67
2024/03/12 13:39:29;;;;;;;3.38;2.72;;;;;;;;;;5033964;28;20049;-68
2024/03/12 13:41:55;;;;;;;3.42;2.50;;;;;;;;;;5032654;28;20039;-68
2024/03/12 13:44:21;;;;;;;2.60;2.00;;;;;;;;;;5032356;28;20123;-68
2024/03/12 13:46:47;;;;;;;1.67;1.58;;;;;;;;;;5032446;28;20053;-67
2024/03/12 13:49:13;;;;;;;1.95;1.45;;;;;;;;;;5033710;28;20041;-68
2024/03/12 13:51:39;;;;;;;1.55;1.45;;;;;;;;;;5032546;28;20131;-67
2024/03/12 13:54:08;;;;;;;3.85;2.08;;;;;;;;;;5033353;28;20148;-68
2024/03/12 13:56:36;;;;;;;2.65;2.08;;;;;;;;;;5032344;28;20061;-66
2024/03/12 13:59:05;;;;;;;2.33;1.55;;;;;;;;;;5032957;28;20437;-66
2024/03/12 14:01:31;;;;;;;2.88;2.15;;;;;;;;;;5032780;28;20033;-65
2024/03/12 14:03:57;;;;;;;2.15;1.77;;;;;;;;;;5025815;28;20514;-63
2024/03/12 14:06:23;;;;;;;3.60;1.67;;;;;;;;;;5031812;28;20142;-63
2024/03/12 14:08:50;;;;;;;3.17;2.22;;;;;;;;;;5029186;28;20480;-63
2024/03/12 14:11:16;;;;;;;3.38;1.40;;;;;;;;;;5029651;28;20033;-63
2024/03/12 14:13:42;;;;;;;2.75;1.60;;;;;;;;;;5030709;28;20499;-62
2024/03/12 14:16:08;;;;;;;5.15;2.00;;;;;;;;;;5031033;28;20041;-67
2024/03/12 14:18:37;;;;;;;4.90;1.92;;;;;;;;;;5029747;28;20029;-63
2024/03/12 14:21:03;;;;;;;1.70;1.25;;;;;;;;;;5032448;28;20037;-65
2024/03/12 14:23:29;;;;;;;2.50;1.92;;;;;;;;;;5031212;28;20045;-65
2024/03/12 14:25:55;;;;;;;2.45;1.60;;;;;;;;;;5033261;28;20037;-67
2024/03/12 14:28:20;;;;;;;3.35;2.30;;;;;;;;;;5032551;28;20041;-64
2024/03/12 14:30:46;;;;;;;4.18;2.22;;;;;;;;;;5031374;28;20571;-65
2024/03/12 14:33:12;;;;;;;2.67;1.90;;;;;;;;;;5030439;28;20502;-65
2024/03/12 14:35:37;;;;;;;5.50;3.50;;;;;;;;;;5030440;28;20095;-65
2024/03/12 14:38:03;;;;;;;5.70;3.30;;;;;;;;;;5030840;28;20530;-65
2024/03/12 14:40:29;;;;;;;6.75;4.57;;;;;;;;;;5032443;28;20543;-63
2024/03/12 14:42:55;;;;;;;6.75;4.43;;;;;;;;;;5014335;28;20483;-64
2024/03/12 14:45:23;;;;;;;6.78;4.25;;;;;;;;;;5032629;28;20038;-65
2024/03/12 14:47:50;;;;;;;8.90;5.25;;;;;;;;;;5031703;28;20120;-64
2024/03/12 14:50:16;;;;;;;4.00;2.75;;;;;;;;;;5031996;28;20033;-65